Alyth, United Kingdom
Current Conditions -  °F | °C
As of 8:20 PM on Friday 31 Oct 2014 (Local Time) from EGPN Reporting Station
Broken Clouds Broken Clouds  
Wind Chill: 61°   Ceiling: 4500
Heat Index: 61°   Visibility: 6mi
Dew Point: 57°   Wind: 9mph
Humidity: 88%   Direction: 170°S
Pressure: 29.59"   Gusts: NA
Location:  56.62°N, 3.23°W
Report Text: EGPN 312020Z 17008KT 130V200 9999 SCT025 BKN045 16/14 Q1002
Loading
Personal Weather Stations






























Interactive Weather Map New forecast layout! Learn more

10-Day Weather Forecast

Advertisements
Track Severe Weather on mobile